Time;durP1;ratioP1;P1;durP2;ratioP2;P2;SDS_P1;SDS_P2;PMS_P1;PMS_P2;Temp;Humidity;BMP_temperature;BMP_pressure;BME280_temperature;BME280_humidity;BME280_pressure;Samples;Min_cycle;Max_cycle;Signal;HPM_P1;HPM_P2
2022/08/09 00:00:21;;;;;;;3.22;1.95;;;;;;;;;;4944281;28;20047;-88
2022/08/09 00:02:51;;;;;;;4.38;2.03;;;;;;;;;;4946023;28;20066;-89
2022/08/09 00:05:21;;;;;;;4.13;2.38;;;;;;;;;;4943725;28;20133;-89
2022/08/09 00:08:39;;;;;;;5.25;2.20;;;;;;;;;;4976008;28;20043;-87
2022/08/09 00:11:07;;;;;;;3.90;2.20;;;;;;;;;;4956040;28;20050;-87
2022/08/09 00:13:51;;;;;;;6.53;2.53;;;;;;;;;;4929760;28;20141;-87
2022/08/09 00:16:19;;;;;;;5.47;2.35;;;;;;;;;;4959002;28;20051;-89
2022/08/09 00:19:11;;;;;;;3.78;2.20;;;;;;;;;;4942398;28;20395;-87
2022/08/09 00:21:45;;;;;;;3.33;1.98;;;;;;;;;;4940584;28;20517;-87
2022/08/09 00:24:29;;;;;;;4.85;2.50;;;;;;;;;;4961736;28;20501;-87
2022/08/09 00:27:23;;;;;;;5.82;1.90;;;;;;;;;;4960730;28;20421;-89
2022/08/09 00:30:04;;;;;;;3.08;2.28;;;;;;;;;;4960404;28;20137;-89
2022/08/09 00:32:51;;;;;;;5.55;2.33;;;;;;;;;;4957510;28;20054;-89
2022/08/09 00:35:19;;;;;;;4.53;2.20;;;;;;;;;;4959566;28;20141;-88
2022/08/09 00:37:51;;;;;;;5.57;2.17;;;;;;;;;;4956019;28;20065;-87
2022/08/09 00:40:23;;;;;;;5.50;2.47;;;;;;;;;;4965694;28;20051;-86
2022/08/09 00:42:57;;;;;;;4.93;2.00;;;;;;;;;;4975857;28;20050;-87
2022/08/09 00:45:46;;;;;;;4.10;2.30;;;;;;;;;;4967251;28;20424;-86
2022/08/09 00:48:19;;;;;;;5.00;2.25;;;;;;;;;;4959073;28;20057;-87
2022/08/09 00:50:49;;;;;;;5.07;1.98;;;;;;;;;;4950152;28;20465;-87
2022/08/09 00:53:23;;;;;;;6.05;2.20;;;;;;;;;;4943272;28;20497;-87
2022/08/09 00:55:53;;;;;;;4.35;2.03;;;;;;;;;;4973272;28;20137;-88
2022/08/09 00:59:01;;;;;;;3.92;2.00;;;;;;;;;;4952023;29;20506;-88
2022/08/09 01:01:39;;;;;;;5.70;1.83;;;;;;;;;;4975111;28;20043;-89
2022/08/09 01:04:40;;;;;;;3.33;1.98;;;;;;;;;;4957701;28;20078;-88
2022/08/09 01:07:24;;;;;;;5.10;2.00;;;;;;;;;;4955315;28;20667;-88
2022/08/09 01:10:23;;;;;;;5.63;2.30;;;;;;;;;;4948636;28;20038;-88
2022/08/09 01:13:17;;;;;;;3.75;1.60;;;;;;;;;;4959535;28;20050;-88
2022/08/09 01:16:29;;;;;;;5.82;2.10;;;;;;;;;;4966433;28;20047;-87
2022/08/09 01:19:10;;;;;;;5.18;2.13;;;;;;;;;;4964711;28;20050;-87
2022/08/09 01:22:32;;;;;;;3.92;2.10;;;;;;;;;;4947451;28;20126;-87
2022/08/09 01:25:48;;;;;;;3.45;1.90;;;;;;;;;;4968889;28;20043;-87
2022/08/09 01:28:44;;;;;;;3.33;1.83;;;;;;;;;;4973439;28;20035;-88
2022/08/09 01:31:20;;;;;;;4.10;2.17;;;;;;;;;;4958039;28;20120;-88
2022/08/09 01:34:17;;;;;;;4.00;2.03;;;;;;;;;;4970434;28;20074;-88
2022/08/09 01:36:48;;;;;;;3.22;2.05;;;;;;;;;;4978626;28;20078;-88
2022/08/09 01:39:23;;;;;;;4.63;2.30;;;;;;;;;;4943016;28;20109;-88
2022/08/09 01:41:53;;;;;;;6.28;2.50;;;;;;;;;;4966157;28;20055;-88
2022/08/09 01:44:31;;;;;;;5.80;2.80;;;;;;;;;;4945393;28;20050;-89
2022/08/09 01:47:00;;;;;;;3.97;2.38;;;;;;;;;;4966220;28;20389;-88
2022/08/09 01:49:30;;;;;;;4.00;2.22;;;;;;;;;;4940727;28;20098;-88
2022/08/09 01:52:33;;;;;;;3.03;1.80;;;;;;;;;;4955152;28;20055;-88
2022/08/09 01:55:12;;;;;;;4.07;2.15;;;;;;;;;;4973951;28;20078;-88
2022/08/09 01:57:44;;;;;;;3.55;2.13;;;;;;;;;;4941449;28;20057;-87
2022/08/09 02:01:02;;;;;;;3.40;2.00;;;;;;;;;;4974274;28;20046;-87
2022/08/09 02:03:33;;;;;;;3.83;1.92;;;;;;;;;;4956148;28;20051;-87
2022/08/09 02:06:08;;;;;;;5.32;2.38;;;;;;;;;;4955776;28;20070;-88
2022/08/09 02:08:38;;;;;;;3.78;2.05;;;;;;;;;;4969605;28;20489;-87
2022/08/09 02:11:53;;;;;;;5.45;1.98;;;;;;;;;;4972323;28;20043;-87
2022/08/09 02:14:26;;;;;;;3.88;2.20;;;;;;;;;;4956493;28;20061;-87
2022/08/09 02:16:55;;;;;;;5.45;2.08;;;;;;;;;;4957104;28;20412;-88
2022/08/09 02:19:48;;;;;;;4.05;2.25;;;;;;;;;;4955284;28;20397;-89
2022/08/09 02:22:22;;;;;;;3.80;2.40;;;;;;;;;;4952754;28;20049;-88
2022/08/09 02:25:00;;;;;;;4.45;2.00;;;;;;;;;;4955640;28;20062;-88
2022/08/09 02:27:30;;;;;;;4.90;1.90;;;;;;;;;;4952375;28;20051;-89
2022/08/09 02:30:22;;;;;;;4.43;1.95;;;;;;;;;;4943484;28;20047;-89
2022/08/09 02:32:55;;;;;;;3.88;2.10;;;;;;;;;;4964322;28;20137;-88
2022/08/09 02:35:27;;;;;;;3.30;1.90;;;;;;;;;;4974417;28;20054;-88
2022/08/09 02:38:23;;;;;;;5.72;2.35;;;;;;;;;;4937144;29;20047;-88
2022/08/09 02:41:02;;;;;;;4.07;2.10;;;;;;;;;;4965720;28;20102;-88
2022/08/09 02:43:33;;;;;;;4.22;2.00;;;;;;;;;;4925637;28;20059;-88
2022/08/09 02:46:28;;;;;;;4.88;2.10;;;;;;;;;;4966667;28;20053;-87
2022/08/09 02:48:59;;;;;;;5.47;2.95;;;;;;;;;;4948922;28;20099;-87
2022/08/09 02:51:33;;;;;;;3.90;1.92;;;;;;;;;;4955263;28;20077;-86
2022/08/09 02:54:11;;;;;;;4.07;1.98;;;;;;;;;;4969203;28;20142;-87
2022/08/09 02:56:43;;;;;;;5.53;2.30;;;;;;;;;;4954368;28;20062;-87
2022/08/09 02:59:47;;;;;;;4.82;2.10;;;;;;;;;;4963359;28;20071;-87
2022/08/09 03:02:38;;;;;;;3.03;1.90;;;;;;;;;;4973687;28;20133;-87
2022/08/09 03:05:31;;;;;;;4.43;1.92;;;;;;;;;;4961862;28;20120;-87
2022/08/09 03:08:24;;;;;;;3.10;1.85;;;;;;;;;;4941167;28;20051;-88
2022/08/09 03:10:54;;;;;;;4.93;1.92;;;;;;;;;;4958564;28;20489;-88
2022/08/09 03:13:23;;;;;;;3.20;1.90;;;;;;;;;;4970106;28;20066;-88
2022/08/09 03:16:10;;;;;;;5.10;1.85;;;;;;;;;;4954530;28;20061;-87
2022/08/09 03:18:41;;;;;;;3.00;1.88;;;;;;;;;;4939237;28;20070;-87
2022/08/09 03:21:10;;;;;;;3.28;1.90;;;;;;;;;;4925407;28;20637;-87
2022/08/09 03:23:42;;;;;;;3.97;1.90;;;;;;;;;;4938944;28;20055;-87
2022/08/09 03:26:37;;;;;;;2.95;1.73;;;;;;;;;;4950574;28;20051;-88
2022/08/09 03:29:12;;;;;;;5.05;1.92;;;;;;;;;;4941649;28;20050;-88
2022/08/09 03:31:51;;;;;;;3.67;2.10;;;;;;;;;;4977735;28;20051;-88
2022/08/09 03:34:27;;;;;;;4.30;2.20;;;;;;;;;;4955220;28;20069;-88
2022/08/09 03:37:19;;;;;;;3.75;1.92;;;;;;;;;;4960758;28;20043;-86
2022/08/09 03:40:09;;;;;;;4.90;2.20;;;;;;;;;;4976114;28;20124;-87
2022/08/09 03:42:39;;;;;;;4.05;2.10;;;;;;;;;;4960274;28;20069;-87
2022/08/09 03:45:13;;;;;;;3.80;2.10;;;;;;;;;;4976393;28;20043;-87
2022/08/09 03:48:34;;;;;;;3.38;1.75;;;;;;;;;;4956041;28;20086;-88
2022/08/09 03:51:05;;;;;;;3.63;2.05;;;;;;;;;;4967101;28;20081;-88
2022/08/09 03:54:20;;;;;;;3.33;1.92;;;;;;;;;;4966637;28;20054;-88
2022/08/09 03:56:58;;;;;;;3.80;1.83;;;;;;;;;;4968370;28;20047;-88
2022/08/09 03:59:26;;;;;;;6.22;2.08;;;;;;;;;;4959803;28;20141;-88
2022/08/09 04:02:13;;;;;;;3.30;1.95;;;;;;;;;;4959648;28;20055;-88
2022/08/09 04:05:05;;;;;;;3.30;2.00;;;;;;;;;;4962109;28;20054;-88
2022/08/09 04:07:54;;;;;;;4.75;2.53;;;;;;;;;;4959696;28;20053;-88
2022/08/09 04:10:29;;;;;;;5.45;2.20;;;;;;;;;;4969480;28;20047;-88
2022/08/09 04:13:08;;;;;;;4.10;1.90;;;;;;;;;;4958038;28;20078;-88
2022/08/09 04:16:03;;;;;;;5.10;2.17;;;;;;;;;;4956391;28;20059;-86
2022/08/09 04:18:47;;;;;;;4.05;2.20;;;;;;;;;;4952094;28;20078;-87
2022/08/09 04:21:18;;;;;;;3.92;1.92;;;;;;;;;;4961445;28;20082;-87
2022/08/09 04:24:11;;;;;;;3.80;1.90;;;;;;;;;;4965385;28;20062;-87
2022/08/09 04:26:43;;;;;;;4.28;2.25;;;;;;;;;;4969355;28;20464;-88
2022/08/09 04:29:12;;;;;;;4.00;2.28;;;;;;;;;;4957411;28;20079;-88
2022/08/09 04:37:27;;;;;;;3.90;2.17;;;;;;;;;;4964887;28;20051;-87
2022/08/09 04:40:19;;;;;;;7.60;2.30;;;;;;;;;;4949581;28;20125;-87
2022/08/09 04:43:03;;;;;;;3.90;2.28;;;;;;;;;;4957587;28;20409;-87
2022/08/09 04:45:36;;;;;;;4.50;2.03;;;;;;;;;;4975705;28;20054;-87
2022/08/09 04:48:20;;;;;;;4.43;1.83;;;;;;;;;;4942845;28;20063;-88
2022/08/09 04:51:05;;;;;;;4.57;2.08;;;;;;;;;;4979934;28;20046;-88
2022/08/09 04:54:03;;;;;;;3.95;2.28;;;;;;;;;;4958112;28;20050;-88
2022/08/09 04:56:31;;;;;;;4.10;2.28;;;;;;;;;;4976234;28;20058;-87
2022/08/09 04:59:05;;;;;;;5.72;2.60;;;;;;;;;;4938878;28;20090;-87
2022/08/09 05:02:07;;;;;;;5.90;2.72;;;;;;;;;;4963084;28;20054;-87
2022/08/09 05:04:35;;;;;;;4.03;2.47;;;;;;;;;;4952960;28;20491;-87
2022/08/09 05:07:27;;;;;;;5.90;2.88;;;;;;;;;;4943880;28;20043;-89
2022/08/09 05:09:59;;;;;;;9.38;3.25;;;;;;;;;;4944611;28;20141;-88
2022/08/09 05:12:28;;;;;;;7.03;3.40;;;;;;;;;;4944179;28;20090;-89
2022/08/09 05:14:57;;;;;;;6.18;3.83;;;;;;;;;;4959586;28;20518;-89
2022/08/09 05:17:49;;;;;;;5.40;3.17;;;;;;;;;;4960164;28;20061;-89
2022/08/09 05:20:37;;;;;;;6.97;3.45;;;;;;;;;;4977094;28;20054;-89
2022/08/09 05:23:11;;;;;;;8.23;3.55;;;;;;;;;;4940066;29;20066;-90
2022/08/09 05:26:05;;;;;;;8.05;3.60;;;;;;;;;;4982913;28;20104;-89
2022/08/09 05:28:33;;;;;;;6.25;3.88;;;;;;;;;;4956010;28;20061;-89
2022/08/09 05:31:02;;;;;;;9.43;3.97;;;;;;;;;;4975799;28;20050;-89
2022/08/09 05:33:35;;;;;;;8.27;4.07;;;;;;;;;;4945329;28;20149;-89
2022/08/09 05:36:33;;;;;;;8.15;3.70;;;;;;;;;;4962053;28;20097;-88
2022/08/09 05:39:01;;;;;;;7.38;3.40;;;;;;;;;;4978101;28;20150;-88
2022/08/09 05:41:31;;;;;;;6.63;3.40;;;;;;;;;;4949790;28;20046;-88
2022/08/09 05:43:59;;;;;;;7.40;3.50;;;;;;;;;;4947602;28;20098;-88
2022/08/09 05:46:27;;;;;;;6.57;3.28;;;;;;;;;;4955557;28;20050;-89
2022/08/09 05:48:57;;;;;;;7.38;3.80;;;;;;;;;;4956057;28;20050;-88
2022/08/09 05:51:25;;;;;;;8.13;3.80;;;;;;;;;;4944181;28;20051;-89
2022/08/09 05:54:17;;;;;;;6.20;3.60;;;;;;;;;;4954592;28;20516;-90
2022/08/09 05:56:49;;;;;;;7.82;4.03;;;;;;;;;;4942720;28;20504;-91
2022/08/09 05:59:29;;;;;;;6.47;3.58;;;;;;;;;;4963989;28;20527;-90
2022/08/09 06:02:01;;;;;;;7.97;4.10;;;;;;;;;;4957027;28;20092;-91
2022/08/09 06:04:29;;;;;;;8.50;3.83;;;;;;;;;;4960485;28;20055;-90
2022/08/09 06:07:02;;;;;;;8.02;4.18;;;;;;;;;;4942154;28;20059;-92
2022/08/09 06:09:29;;;;;;;7.35;3.70;;;;;;;;;;4942994;28;20094;-91
2022/08/09 06:12:21;;;;;;;6.70;3.67;;;;;;;;;;4981521;28;20056;-92
2022/08/09 06:15:04;;;;;;;6.47;3.42;;;;;;;;;;4994293;28;20050;-91
2022/08/09 06:17:40;;;;;;;13.82;3.47;;;;;;;;;;4975796;28;20109;-92
2022/08/09 06:20:14;;;;;;;7.15;3.67;;;;;;;;;;4942554;28;20145;-92
2022/08/09 06:22:45;;;;;;;10.30;3.85;;;;;;;;;;4959135;28;20051;-92
2022/08/09 06:25:14;;;;;;;6.60;3.35;;;;;;;;;;4958414;28;20074;-92
2022/08/09 06:28:31;;;;;;;7.65;3.50;;;;;;;;;;4962328;28;20342;-91
2022/08/09 06:30:59;;;;;;;6.25;3.35;;;;;;;;;;4938806;29;20059;-94
2022/08/09 06:33:53;;;;;;;7.15;3.63;;;;;;;;;;4955189;28;20051;-94
2022/08/09 06:36:21;;;;;;;9.88;3.17;;;;;;;;;;4939230;29;20078;-92
2022/08/09 06:38:56;;;;;;;7.85;2.97;;;;;;;;;;4938688;29;20517;-91
2022/08/09 06:41:24;;;;;;;8.50;2.97;;;;;;;;;;4922627;29;20051;-90
2022/08/09 06:44:13;;;;;;;8.15;2.75;;;;;;;;;;4964009;28;20082;-94
2022/08/09 06:46:47;;;;;;;8.02;3.17;;;;;;;;;;4957654;28;20055;-85
2022/08/09 06:49:27;;;;;;;6.18;2.80;;;;;;;;;;4948091;28;20046;-85
2022/08/09 06:52:20;;;;;;;4.95;2.88;;;;;;;;;;4951984;28;20953;-85
2022/08/09 06:54:51;;;;;;;7.10;3.03;;;;;;;;;;4949619;28;20133;-85
2022/08/09 06:57:24;;;;;;;6.18;3.13;;;;;;;;;;4970774;28;20042;-84
2022/08/09 07:00:35;;;;;;;5.20;3.05;;;;;;;;;;4972221;28;20918;-85
2022/08/09 07:03:28;;;;;;;5.20;2.85;;;;;;;;;;4955788;28;20069;-85
2022/08/09 07:05:57;;;;;;;8.63;2.97;;;;;;;;;;4972132;28;20931;-86
2022/08/09 07:08:58;;;;;;;10.27;3.22;;;;;;;;;;4955878;28;20837;-85
2022/08/09 07:11:50;;;;;;;7.88;2.58;;;;;;;;;;4953756;28;20053;-85
2022/08/09 07:14:25;;;;;;;4.70;2.83;;;;;;;;;;4963869;28;20043;-85
2022/08/09 07:16:53;;;;;;;5.32;2.97;;;;;;;;;;4973805;28;20047;-85
2022/08/09 07:19:25;;;;;;;7.03;2.88;;;;;;;;;;4950124;28;20043;-85
2022/08/09 07:22:19;;;;;;;5.68;2.90;;;;;;;;;;4972963;28;20050;-84
2022/08/09 07:25:06;;;;;;;9.15;3.05;;;;;;;;;;4955287;28;20047;-85
2022/08/09 07:27:42;;;;;;;5.70;2.90;;;;;;;;;;4955837;28;20082;-90
2022/08/09 07:30:34;;;;;;;43.17;4.95;;;;;;;;;;4955251;28;20041;-91
2022/08/09 07:33:03;;;;;;;10.05;2.80;;;;;;;;;;4942226;28;20043;-91
2022/08/09 07:35:41;;;;;;;5.32;2.33;;;;;;;;;;4969859;28;20048;-92
2022/08/09 07:38:26;;;;;;;5.57;2.55;;;;;;;;;;4955565;28;20050;-92
2022/08/09 07:40:57;;;;;;;4.13;2.42;;;;;;;;;;4946864;28;20078;-91
2022/08/09 07:52:32;;;;;;;5.85;2.20;;;;;;;;;;4952446;28;20035;-85
2022/08/09 07:55:03;;;;;;;5.10;2.30;;;;;;;;;;4970900;28;20059;-85
2022/08/09 07:57:35;;;;;;;8.23;2.13;;;;;;;;;;4963819;28;20063;-85
2022/08/09 08:00:05;;;;;;;5.30;2.17;;;;;;;;;;4955085;28;20079;-85
2022/08/09 08:02:42;;;;;;;4.82;2.08;;;;;;;;;;4969973;28;21014;-85
2022/08/09 08:05:14;;;;;;;5.80;1.80;;;;;;;;;;4955787;28;20461;-85
2022/08/09 08:08:11;;;;;;;5.70;1.90;;;;;;;;;;4972006;28;20079;-85
2022/08/09 08:10:59;;;;;;;4.25;2.10;;;;;;;;;;4939110;28;20102;-85
2022/08/09 08:13:47;;;;;;;5.78;2.13;;;;;;;;;;4970604;28;20074;-85
2022/08/09 08:16:47;;;;;;;5.18;1.80;;;;;;;;;;4975573;28;20424;-92
2022/08/09 08:19:27;;;;;;;3.13;1.83;;;;;;;;;;4961846;28;20102;-92
2022/08/09 08:22:23;;;;;;;4.25;2.00;;;;;;;;;;4964697;28;20053;-91
2022/08/09 08:25:39;;;;;;;2.90;1.70;;;;;;;;;;4969056;28;20500;-92
2022/08/09 08:28:51;;;;;;;4.00;1.73;;;;;;;;;;4960050;28;20055;-85
2022/08/09 08:33:24;;;;;;;5.03;1.85;;;;;;;;;;4972916;28;20175;-84
2022/08/09 08:36:15;;;;;;;7.85;1.52;;;;;;;;;;4875449;29;20048;-92
2022/08/09 08:44:59;;;;;;;;;;;;;;;;;;;;;
2022/08/09 08:48:16;;;;;;;4.10;1.50;;;;;;;;;;4769808;30;20063;-86
2022/08/09 08:51:11;;;;;;;4.32;1.10;;;;;;;;;;4768062;30;20060;-86
2022/08/09 08:53:39;;;;;;;5.45;1.40;;;;;;;;;;4767588;30;20150;-86
2022/08/09 08:56:37;;;;;;;4.03;1.30;;;;;;;;;;4768672;30;20087;-92
2022/08/09 08:59:58;;;;;;;4.93;1.23;;;;;;;;;;4769856;30;20056;-91
2022/08/09 09:02:28;;;;;;;3.47;1.30;;;;;;;;;;4768126;30;20055;-92
2022/08/09 09:05:04;;;;;;;4.55;1.30;;;;;;;;;;4769644;30;20507;-93
2022/08/09 09:08:00;;;;;;;2.47;1.20;;;;;;;;;;4769069;30;20442;-85
2022/08/09 09:10:55;;;;;;;4.28;1.20;;;;;;;;;;4784115;30;20055;-85
2022/08/09 09:13:38;;;;;;;3.08;1.30;;;;;;;;;;4771665;29;20138;-85
2022/08/09 09:16:32;;;;;;;4.07;1.10;;;;;;;;;;4786986;29;20086;-86
2022/08/09 09:19:07;;;;;;;2.35;1.05;;;;;;;;;;4890298;28;20478;-85
2022/08/09 09:22:10;;;;;;;3.22;1.63;;;;;;;;;;4972732;28;20055;-85
2022/08/09 09:24:47;;;;;;;2.53;1.10;;;;;;;;;;4956865;28;20057;-85
2022/08/09 09:27:39;;;;;;;5.32;1.20;;;;;;;;;;4977122;28;20656;-92
2022/08/09 09:30:34;;;;;;;3.88;1.20;;;;;;;;;;4955435;28;20054;-93
2022/08/09 09:33:12;;;;;;;3.00;1.20;;;;;;;;;;4955686;28;20461;-92
2022/08/09 09:36:12;;;;;;;2.13;0.98;;;;;;;;;;4958822;28;20065;-86
2022/08/09 09:39:21;;;;;;;4.80;0.98;;;;;;;;;;4974668;28;20042;-92
2022/08/09 09:42:38;;;;;;;5.50;1.10;;;;;;;;;;4952444;28;20085;-92
2022/08/09 09:45:13;;;;;;;2.20;0.90;;;;;;;;;;4943100;28;20047;-93
2022/08/09 09:48:07;;;;;;;2.88;1.00;;;;;;;;;;4970497;28;20063;-86
2022/08/09 09:50:52;;;;;;;6.22;1.13;;;;;;;;;;4957301;28;20082;-86
2022/08/09 09:53:34;;;;;;;3.22;1.00;;;;;;;;;;4927671;28;20077;-86
2022/08/09 09:56:37;;;;;;;2.70;1.10;;;;;;;;;;4957796;28;20046;-93
2022/08/09 09:59:33;;;;;;;4.00;1.60;;;;;;;;;;4955143;28;20540;-94
2022/08/09 10:02:08;;;;;;;2.30;1.00;;;;;;;;;;4959254;28;20516;-94
2022/08/09 10:04:42;;;;;;;2.30;1.13;;;;;;;;;;4959256;28;20050;-93
2022/08/09 10:07:26;;;;;;;5.35;1.00;;;;;;;;;;4966631;28;20058;-92
2022/08/09 10:09:56;;;;;;;2.28;1.00;;;;;;;;;;4948028;28;20157;-93
2022/08/09 10:12:36;;;;;;;2.30;1.00;;;;;;;;;;4967929;28;20110;-93
2022/08/09 10:15:14;;;;;;;4.15;1.10;;;;;;;;;;4986714;28;20050;-93
2022/08/09 10:18:16;;;;;;;3.63;1.02;;;;;;;;;;4967232;28;20476;-93
2022/08/09 10:21:21;;;;;;;5.00;1.00;;;;;;;;;;4961727;28;20062;-92
2022/08/09 10:23:54;;;;;;;4.05;1.27;;;;;;;;;;4974626;28;20061;-92
2022/08/09 10:26:24;;;;;;;2.63;1.00;;;;;;;;;;4972451;28;20134;-86
2022/08/09 10:29:04;;;;;;;2.28;0.93;;;;;;;;;;4968331;28;20054;-92
2022/08/09 10:31:52;;;;;;;4.60;1.00;;;;;;;;;;4952563;28;20054;-92
2022/08/09 10:34:41;;;;;;;2.38;0.93;;;;;;;;;;4973558;28;20070;-93
2022/08/09 10:37:42;;;;;;;3.03;1.00;;;;;;;;;;4956828;28;20082;-93
2022/08/09 10:40:14;;;;;;;2.63;0.90;;;;;;;;;;4962759;28;20047;-92
2022/08/09 10:43:03;;;;;;;2.95;1.00;;;;;;;;;;4938696;28;20047;-92
2022/08/09 10:45:35;;;;;;;2.08;0.90;;;;;;;;;;4968137;28;20047;-93
2022/08/09 10:48:40;;;;;;;2.15;0.90;;;;;;;;;;4955185;28;20050;-85
2022/08/09 10:51:17;;;;;;;2.45;0.90;;;;;;;;;;4957104;28;20054;-85
2022/08/09 10:54:13;;;;;;;2.85;1.10;;;;;;;;;;4967996;28;20186;-85
2022/08/09 10:56:42;;;;;;;1.65;0.90;;;;;;;;;;4936322;28;20180;-85
2022/08/09 10:59:26;;;;;;;3.67;1.33;;;;;;;;;;4973683;28;20082;-85
2022/08/09 11:02:13;;;;;;;4.22;0.90;;;;;;;;;;4957957;28;20089;-85
2022/08/09 11:05:16;;;;;;;2.78;1.00;;;;;;;;;;4942152;28;20540;-85
2022/08/09 11:08:38;;;;;;;1.85;0.70;;;;;;;;;;4939841;28;20062;-92
2022/08/09 11:11:53;;;;;;;5.53;1.10;;;;;;;;;;4937542;28;20054;-92
2022/08/09 11:14:49;;;;;;;2.92;0.90;;;;;;;;;;4981635;28;20062;-91
2022/08/09 11:17:54;;;;;;;1.63;0.77;;;;;;;;;;4961091;28;20141;-86
2022/08/09 11:20:59;;;;;;;;;;;;;;;;;;;;;
2022/08/09 11:24:01;;;;;;;3.47;0.90;;;;;;;;;;4972715;28;20189;-87
2022/08/09 11:26:43;;;;;;;6.35;0.90;;;;;;;;;;4955303;28;20047;-86
2022/08/09 11:29:56;;;;;;;3.95;1.00;;;;;;;;;;4924228;28;20057;-86
2022/08/09 11:32:50;;;;;;;2.33;0.80;;;;;;;;;;4965188;28;20047;-85
2022/08/09 11:35:47;;;;;;;2.45;0.77;;;;;;;;;;4933498;28;20130;-85
2022/08/09 11:38:34;;;;;;;2.25;0.93;;;;;;;;;;4968513;28;20047;-92
2022/08/09 11:41:29;;;;;;;2.65;0.90;;;;;;;;;;4955320;28;20077;-93
2022/08/09 11:44:44;;;;;;;4.40;0.73;;;;;;;;;;4965950;28;20051;-93
2022/08/09 11:47:14;;;;;;;2.80;0.80;;;;;;;;;;4946769;28;20106;-86
2022/08/09 11:50:04;;;;;;;1.38;0.70;;;;;;;;;;4970311;28;20051;-86
2022/08/09 11:52:57;;;;;;;2.38;0.77;;;;;;;;;;4864371;29;20060;-86
2022/08/09 11:55:54;;;;;;;3.15;1.00;;;;;;;;;;4878871;29;20041;-86
2022/08/09 11:58:30;;;;;;;2.72;0.68;;;;;;;;;;4885015;29;20075;-93
2022/08/09 12:01:06;;;;;;;1.83;0.90;;;;;;;;;;4875444;29;20524;-93
2022/08/09 12:03:43;;;;;;;1.88;0.63;;;;;;;;;;4836514;29;20428;-93
2022/08/09 12:06:52;;;;;;;2.50;0.80;;;;;;;;;;4854432;29;20052;-93
2022/08/09 12:09:31;;;;;;;3.42;0.75;;;;;;;;;;4883775;29;20515;-93
2022/08/09 12:12:15;;;;;;;2.85;0.77;;;;;;;;;;4854872;29;20052;-93
2022/08/09 12:15:23;;;;;;;1.98;1.10;;;;;;;;;;4843861;29;20136;-93
2022/08/09 12:18:41;;;;;;;2.92;0.90;;;;;;;;;;4885315;29;20060;-93
2022/08/09 12:21:50;;;;;;;3.78;1.00;;;;;;;;;;4868731;29;20049;-92
2022/08/09 12:24:24;;;;;;;2.22;0.65;;;;;;;;;;4835546;29;20103;-93
2022/08/09 12:27:03;;;;;;;2.20;0.85;;;;;;;;;;4800721;29;20062;-92
2022/08/09 12:29:59;;;;;;;3.85;1.02;;;;;;;;;;4855252;29;20052;-92
2022/08/09 12:33:03;;;;;;;2.78;0.80;;;;;;;;;;4884183;29;20104;-92
2022/08/09 12:35:43;;;;;;;2.03;0.85;;;;;;;;;;4895507;29;20051;-92
2022/08/09 12:38:21;;;;;;;2.42;0.88;;;;;;;;;;4883002;29;20057;-92
2022/08/09 12:41:04;;;;;;;2.45;0.80;;;;;;;;;;4881742;29;20060;-92
2022/08/09 12:43:41;;;;;;;2.50;1.02;;;;;;;;;;4884674;29;20059;-92
2022/08/09 12:46:43;;;;;;;;;;;;;;;;;;4878379;29;20060;-92
2022/08/09 12:49:20;;;;;;;1.35;0.70;;;;;;;;;;4878805;29;19923;-92
2022/08/09 12:52:11;;;;;;;2.22;0.80;;;;;;;;;;4880187;29;20092;-85
2022/08/09 12:54:50;;;;;;;2.67;1.05;;;;;;;;;;4896959;29;20100;-85
2022/08/09 12:57:45;;;;;;;;;;;;;;;;;;4874928;29;20523;-85
2022/08/09 13:00:23;;;;;;;3.15;1.00;;;;;;;;;;4891189;28;19922;-85
2022/08/09 13:03:02;;;;;;;1.75;0.77;;;;;;;;;;4966257;28;20057;-85
2022/08/09 13:05:43;;;;;;;4.50;0.80;;;;;;;;;;4958206;28;20050;-85
2022/08/09 13:09:02;;;;;;;1.95;0.80;;;;;;;;;;4971644;28;20298;-85
2022/08/09 13:11:47;;;;;;;3.40;0.95;;;;;;;;;;4972578;28;20050;-85
2022/08/09 13:14:30;;;;;;;3.83;0.80;;;;;;;;;;4965200;28;20446;-85
2022/08/09 13:17:15;;;;;;;2.35;0.80;;;;;;;;;;4965031;28;21885;-85
2022/08/09 13:20:07;;;;;;;3.83;1.30;;;;;;;;;;4959987;28;20400;-85
2022/08/09 13:22:51;;;;;;;3.50;1.27;;;;;;;;;;4955977;28;20046;-85
2022/08/09 13:25:45;;;;;;;2.65;1.00;;;;;;;;;;4951171;28;20050;-85
2022/08/09 13:29:05;;;;;;;3.88;0.80;;;;;;;;;;4955995;28;20367;-86
2022/08/09 13:31:34;;;;;;;3.13;0.90;;;;;;;;;;4973428;28;20121;-85
2022/08/09 13:34:30;;;;;;;2.72;0.90;;;;;;;;;;4955188;28;20043;-85
2022/08/09 13:37:05;;;;;;;3.40;1.58;;;;;;;;;;4957684;28;20563;-85
2022/08/09 13:39:38;;;;;;;3.72;1.63;;;;;;;;;;4947249;28;20051;-85
2022/08/09 13:42:28;;;;;;;3.17;0.77;;;;;;;;;;4973911;28;20134;-85
2022/08/09 13:45:48;;;;;;;1.92;0.77;;;;;;;;;;4953016;28;20051;-87
2022/08/09 13:48:39;;;;;;;1.73;0.70;;;;;;;;;;4945858;28;20065;-95
2022/08/09 13:51:09;;;;;;;3.13;0.77;;;;;;;;;;4928674;28;20505;-93
2022/08/09 13:53:50;;;;;;;2.92;1.05;;;;;;;;;;4959219;28;20098;-94
2022/08/09 13:56:27;;;;;;;3.88;1.08;;;;;;;;;;4944626;28;20117;-94
2022/08/09 13:59:25;;;;;;;4.07;0.88;;;;;;;;;;4976054;28;20046;-94
2022/08/09 14:03:00;;;;;;;2.33;0.75;;;;;;;;;;4964332;28;20046;-93
2022/08/09 14:05:47;;;;;;;2.05;0.77;;;;;;;;;;4958359;28;20135;-93
2022/08/09 14:08:34;;;;;;;5.28;0.85;;;;;;;;;;4957523;28;20055;-93
2022/08/09 14:11:09;;;;;;;3.05;0.88;;;;;;;;;;4958004;28;20134;-94
2022/08/09 14:14:07;;;;;;;2.30;0.90;;;;;;;;;;4958082;28;20057;-94
2022/08/09 14:16:52;;;;;;;4.68;0.93;;;;;;;;;;4944436;28;20137;-94
2022/08/09 14:19:30;;;;;;;2.60;0.80;;;;;;;;;;4974309;28;20059;-94
2022/08/09 14:22:07;;;;;;;1.63;0.75;;;;;;;;;;4958098;28;20050;-93
2022/08/09 14:25:00;;;;;;;2.28;0.90;;;;;;;;;;4974594;28;20083;-93
2022/08/09 14:27:27;;;;;;;1.50;0.93;;;;;;;;;;4939983;28;20161;-94
2022/08/09 14:30:25;;;;;;;3.83;0.80;;;;;;;;;;4963036;28;20054;-93
2022/08/09 14:33:07;;;;;;;2.40;0.80;;;;;;;;;;4960060;28;20051;-93
2022/08/09 14:35:37;;;;;;;3.35;0.98;;;;;;;;;;4974527;28;20055;-93
2022/08/09 14:38:19;;;;;;;2.25;0.80;;;;;;;;;;4960887;28;20055;-94
2022/08/09 14:40:47;;;;;;;3.00;0.88;;;;;;;;;;4957895;28;20077;-93
2022/08/09 14:43:31;;;;;;;1.48;0.80;;;;;;;;;;4944090;28;20054;-93
2022/08/09 14:46:14;;;;;;;3.13;0.90;;;;;;;;;;4944761;28;20051;-87
2022/08/09 14:49:02;;;;;;;3.38;0.85;;;;;;;;;;4971810;28;20417;-87
2022/08/09 14:51:29;;;;;;;1.52;0.70;;;;;;;;;;4958118;28;20058;-87
2022/08/09 14:54:09;;;;;;;1.77;0.82;;;;;;;;;;4942115;28;20043;-87
2022/08/09 14:56:42;;;;;;;3.80;0.93;;;;;;;;;;4957537;28;20051;-93
2022/08/09 14:59:26;;;;;;;2.35;1.00;;;;;;;;;;4974745;28;20090;-93
2022/08/09 15:01:55;;;;;;;4.15;1.23;;;;;;;;;;4942106;28;20086;-93
2022/08/09 15:04:25;;;;;;;14.90;3.90;;;;;;;;;;4957573;28;20054;-92
2022/08/09 15:06:53;;;;;;;12.95;3.22;;;;;;;;;;4971519;28;20463;-94
2022/08/09 15:09:22;;;;;;;1.83;1.10;;;;;;;;;;4957851;28;20062;-93
2022/08/09 15:12:09;;;;;;;2.17;1.02;;;;;;;;;;4957381;28;20522;-94
2022/08/09 15:14:42;;;;;;;3.85;1.00;;;;;;;;;;4925807;28;20100;-94
2022/08/09 15:17:09;;;;;;;4.43;0.90;;;;;;;;;;4939656;28;20178;-87
2022/08/09 15:19:43;;;;;;;2.10;1.00;;;;;;;;;;4941053;28;20129;-87
2022/08/09 15:22:29;;;;;;;2.03;1.00;;;;;;;;;;4969638;28;20058;-87
2022/08/09 15:25:18;;;;;;;2.95;0.88;;;;;;;;;;4971320;28;20184;-87
2022/08/09 15:28:09;;;;;;;2.13;1.00;;;;;;;;;;4970696;28;20167;-93
2022/08/09 15:30:54;;;;;;;2.50;0.80;;;;;;;;;;4957686;28;20055;-93
2022/08/09 15:33:38;;;;;;;2.80;1.10;;;;;;;;;;4959476;28;20043;-93
2022/08/09 15:36:26;;;;;;;2.78;1.05;;;;;;;;;;4973172;28;20158;-93
2022/08/09 15:38:58;;;;;;;3.08;1.20;;;;;;;;;;4942772;28;20489;-92
2022/08/09 15:41:27;;;;;;;4.13;1.08;;;;;;;;;;4942065;28;20074;-93
2022/08/09 15:44:00;;;;;;;1.38;0.77;;;;;;;;;;4941946;28;20170;-93
2022/08/09 15:46:29;;;;;;;2.65;0.93;;;;;;;;;;4957740;28;20077;-93
2022/08/09 15:49:05;;;;;;;1.95;1.05;;;;;;;;;;4957206;28;20051;-92
2022/08/09 15:51:50;;;;;;;1.90;1.02;;;;;;;;;;4943980;28;20134;-93
2022/08/09 15:54:37;;;;;;;2.20;1.10;;;;;;;;;;4941050;28;20098;-93
2022/08/09 15:57:21;;;;;;;2.70;1.08;;;;;;;;;;4941082;28;20437;-86
2022/08/09 16:00:27;;;;;;;2.38;1.10;;;;;;;;;;4949979;28;20500;-87
2022/08/09 16:02:57;;;;;;;1.80;0.93;;;;;;;;;;4952044;28;20134;-87
2022/08/09 16:05:28;;;;;;;3.15;1.25;;;;;;;;;;4925867;28;20536;-87
2022/08/09 16:08:21;;;;;;;2.17;1.00;;;;;;;;;;4956900;28;20059;-93
2022/08/09 16:10:59;;;;;;;3.58;1.40;;;;;;;;;;4956767;28;20162;-92
2022/08/09 16:13:39;;;;;;;2.72;1.20;;;;;;;;;;4956979;28;20150;-93
2022/08/09 16:16:30;;;;;;;3.40;1.30;;;;;;;;;;4956950;28;20047;-87
2022/08/09 16:18:57;;;;;;;2.63;0.95;;;;;;;;;;4956250;28;20070;-87
2022/08/09 16:21:29;;;;;;;3.42;1.17;;;;;;;;;;4965762;28;20061;-87
2022/08/09 16:24:04;;;;;;;5.18;1.20;;;;;;;;;;4972372;28;20058;-87
2022/08/09 16:26:39;;;;;;;3.17;1.30;;;;;;;;;;4972070;28;20055;-87
2022/08/09 16:29:15;;;;;;;4.28;1.20;;;;;;;;;;4973085;28;20106;-87
2022/08/09 16:31:48;;;;;;;4.07;1.20;;;;;;;;;;4955652;28;20083;-87
2022/08/09 16:34:36;;;;;;;6.43;1.58;;;;;;;;;;4955002;28;20042;-87
2022/08/09 16:37:28;;;;;;;4.53;1.20;;;;;;;;;;4979946;28;20138;-93
2022/08/09 16:40:18;;;;;;;3.42;1.33;;;;;;;;;;4947079;28;20121;-93
2022/08/09 16:43:05;;;;;;;5.18;1.60;;;;;;;;;;4931391;28;20051;-93
2022/08/09 16:45:34;;;;;;;5.40;1.40;;;;;;;;;;4944025;28;20055;-93
2022/08/09 16:48:10;;;;;;;3.30;1.40;;;;;;;;;;4957146;28;20058;-87